sensor_id;sensor_type;location;lat;lon;timestamp;P1;durP1;ratioP1;P2;durP2;ratioP2
49572;SDS011;35476;52.466;13.364;2022-12-07T00:00:41;21.50;;;14.20;;
49572;SDS011;35476;52.466;13.364;2022-12-07T00:03:06;21.67;;;12.90;;
49572;SDS011;35476;52.466;13.364;2022-12-07T00:05:32;20.30;;;12.37;;
49572;SDS011;35476;52.466;13.364;2022-12-07T00:07:57;21.50;;;12.68;;
49572;SDS011;35476;52.466;13.364;2022-12-07T00:10:22;20.60;;;15.03;;
49572;SDS011;35476;52.466;13.364;2022-12-07T00:12:47;17.77;;;12.63;;
49572;SDS011;35476;52.466;13.364;2022-12-07T00:15:12;17.52;;;12.57;;
49572;SDS011;35476;52.466;13.364;2022-12-07T00:17:38;16.40;;;12.63;;
49572;SDS011;35476;52.466;13.364;2022-12-07T00:20:03;43.13;;;17.77;;
49572;SDS011;35476;52.466;13.364;2022-12-07T00:22:28;21.60;;;13.27;;
49572;SDS011;35476;52.466;13.364;2022-12-07T00:24:54;17.52;;;12.32;;
49572;SDS011;35476;52.466;13.364;2022-12-07T00:27:19;17.97;;;12.20;;
49572;SDS011;35476;52.466;13.364;2022-12-07T00:29:44;23.20;;;14.33;;
49572;SDS011;35476;52.466;13.364;2022-12-07T00:32:09;24.47;;;13.47;;
49572;SDS011;35476;52.466;13.364;2022-12-07T00:34:34;25.40;;;13.03;;
49572;SDS011;35476;52.466;13.364;2022-12-07T00:37:00;17.38;;;12.20;;
49572;SDS011;35476;52.466;13.364;2022-12-07T00:39:25;18.33;;;12.73;;
49572;SDS011;35476;52.466;13.364;2022-12-07T00:41:50;13.73;;;10.10;;
49572;SDS011;35476;52.466;13.364;2022-12-07T00:44:15;16.83;;;10.88;;
49572;SDS011;35476;52.466;13.364;2022-12-07T00:46:40;17.42;;;11.80;;
49572;SDS011;35476;52.466;13.364;2022-12-07T00:49:06;16.57;;;10.27;;
49572;SDS011;35476;52.466;13.364;2022-12-07T00:51:31;17.97;;;11.80;;
49572;SDS011;35476;52.466;13.364;2022-12-07T00:53:56;19.00;;;12.13;;
49572;SDS011;35476;52.466;13.364;2022-12-07T00:56:22;24.03;;;11.87;;
49572;SDS011;35476;52.466;13.364;2022-12-07T00:59:06;17.52;;;12.02;;
49572;SDS011;35476;52.466;13.364;2022-12-07T01:01:32;16.60;;;11.20;;
49572;SDS011;35476;52.466;13.364;2022-12-07T01:03:58;18.35;;;10.95;;
49572;SDS011;35476;52.466;13.364;2022-12-07T01:06:26;16.30;;;10.30;;
49572;SDS011;35476;52.466;13.364;2022-12-07T01:08:51;14.52;;;11.50;;
49572;SDS011;35476;52.466;13.364;2022-12-07T01:11:18;17.67;;;11.38;;
49572;SDS011;35476;52.466;13.364;2022-12-07T01:13:44;16.95;;;12.25;;
49572;SDS011;35476;52.466;13.364;2022-12-07T01:16:10;16.25;;;10.93;;
49572;SDS011;35476;52.466;13.364;2022-12-07T01:18:35;17.38;;;11.18;;
49572;SDS011;35476;52.466;13.364;2022-12-07T01:21:05;16.35;;;10.50;;
49572;SDS011;35476;52.466;13.364;2022-12-07T01:23:31;13.20;;;9.40;;
49572;SDS011;35476;52.466;13.364;2022-12-07T01:25:57;14.80;;;8.82;;
49572;SDS011;35476;52.466;13.364;2022-12-07T01:28:22;12.15;;;8.95;;
49572;SDS011;35476;52.466;13.364;2022-12-07T01:30:54;13.80;;;10.07;;
49572;SDS011;35476;52.466;13.364;2022-12-07T01:33:20;13.85;;;9.90;;
49572;SDS011;35476;52.466;13.364;2022-12-07T01:35:45;13.03;;;8.37;;
49572;SDS011;35476;52.466;13.364;2022-12-07T01:38:10;12.33;;;8.70;;
49572;SDS011;35476;52.466;13.364;2022-12-07T01:40:35;11.85;;;9.52;;
49572;SDS011;35476;52.466;13.364;2022-12-07T01:43:00;11.18;;;8.13;;
49572;SDS011;35476;52.466;13.364;2022-12-07T01:45:39;14.07;;;7.90;;
49572;SDS011;35476;52.466;13.364;2022-12-07T01:48:04;11.63;;;8.25;;
49572;SDS011;35476;52.466;13.364;2022-12-07T01:50:30;10.00;;;7.63;;
49572;SDS011;35476;52.466;13.364;2022-12-07T01:52:58;13.77;;;8.13;;
49572;SDS011;35476;52.466;13.364;2022-12-07T01:55:25;9.73;;;7.35;;
49572;SDS011;35476;52.466;13.364;2022-12-07T01:57:52;10.48;;;8.52;;
49572;SDS011;35476;52.466;13.364;2022-12-07T02:00:18;9.88;;;7.90;;
49572;SDS011;35476;52.466;13.364;2022-12-07T02:02:54;10.93;;;7.47;;
49572;SDS011;35476;52.466;13.364;2022-12-07T02:05:20;11.15;;;7.35;;
49572;SDS011;35476;52.466;13.364;2022-12-07T02:07:47;10.02;;;7.55;;
49572;SDS011;35476;52.466;13.364;2022-12-07T02:10:13;10.00;;;7.65;;
49572;SDS011;35476;52.466;13.364;2022-12-07T02:12:39;20.75;;;9.85;;
49572;SDS011;35476;52.466;13.364;2022-12-07T02:15:04;13.50;;;8.18;;
49572;SDS011;35476;52.466;13.364;2022-12-07T02:20:13;13.73;;;9.25;;
49572;SDS011;35476;52.466;13.364;2022-12-07T02:22:47;13.07;;;8.50;;
49572;SDS011;35476;52.466;13.364;2022-12-07T02:28:05;14.70;;;9.88;;
49572;SDS011;35476;52.466;13.364;2022-12-07T02:30:31;12.55;;;8.90;;
49572;SDS011;35476;52.466;13.364;2022-12-07T02:33:05;9.70;;;8.45;;
49572;SDS011;35476;52.466;13.364;2022-12-07T02:35:33;12.73;;;7.80;;
49572;SDS011;35476;52.466;13.364;2022-12-07T02:38:11;15.20;;;8.93;;
49572;SDS011;35476;52.466;13.364;2022-12-07T02:43:12;13.90;;;10.27;;
49572;SDS011;35476;52.466;13.364;2022-12-07T02:45:40;11.57;;;8.05;;
49572;SDS011;35476;52.466;13.364;2022-12-07T02:48:06;15.30;;;9.38;;
49572;SDS011;35476;52.466;13.364;2022-12-07T02:50:33;16.98;;;9.05;;
49572;SDS011;35476;52.466;13.364;2022-12-07T02:52:58;12.77;;;9.02;;
49572;SDS011;35476;52.466;13.364;2022-12-07T02:55:27;13.35;;;9.05;;
49572;SDS011;35476;52.466;13.364;2022-12-07T03:00:36;13.40;;;9.30;;
49572;SDS011;35476;52.466;13.364;2022-12-07T03:03:06;16.38;;;10.02;;
49572;SDS011;35476;52.466;13.364;2022-12-07T03:08:13;15.57;;;10.00;;
49572;SDS011;35476;52.466;13.364;2022-12-07T03:10:45;16.52;;;9.90;;
49572;SDS011;35476;52.466;13.364;2022-12-07T03:18:23;15.75;;;10.85;;
49572;SDS011;35476;52.466;13.364;2022-12-07T03:20:50;14.90;;;9.02;;
49572;SDS011;35476;52.466;13.364;2022-12-07T03:23:16;13.00;;;10.05;;
49572;SDS011;35476;52.466;13.364;2022-12-07T03:25:42;18.70;;;10.23;;
49572;SDS011;35476;52.466;13.364;2022-12-07T03:28:08;14.15;;;10.02;;
49572;SDS011;35476;52.466;13.364;2022-12-07T03:33:07;11.90;;;9.60;;
49572;SDS011;35476;52.466;13.364;2022-12-07T03:35:36;13.68;;;9.45;;
49572;SDS011;35476;52.466;13.364;2022-12-07T03:38:05;13.05;;;9.68;;
49572;SDS011;35476;52.466;13.364;2022-12-07T03:40:34;19.50;;;10.73;;
49572;SDS011;35476;52.466;13.364;2022-12-07T03:43:02;15.57;;;11.50;;
49572;SDS011;35476;52.466;13.364;2022-12-07T03:45:33;18.55;;;10.65;;
49572;SDS011;35476;52.466;13.364;2022-12-07T03:50:49;20.38;;;10.85;;
49572;SDS011;35476;52.466;13.364;2022-12-07T03:53:20;18.08;;;11.18;;
49572;SDS011;35476;52.466;13.364;2022-12-07T03:55:47;18.50;;;12.10;;
49572;SDS011;35476;52.466;13.364;2022-12-07T03:58:15;16.98;;;11.68;;
49572;SDS011;35476;52.466;13.364;2022-12-07T04:00:41;22.77;;;13.02;;
49572;SDS011;35476;52.466;13.364;2022-12-07T04:03:07;53.97;;;15.98;;
49572;SDS011;35476;52.466;13.364;2022-12-07T04:05:32;27.15;;;13.57;;
49572;SDS011;35476;52.466;13.364;2022-12-07T04:07:58;55.20;;;14.32;;
49572;SDS011;35476;52.466;13.364;2022-12-07T04:10:23;85.43;;;20.73;;
49572;SDS011;35476;52.466;13.364;2022-12-07T04:12:48;24.97;;;14.33;;
49572;SDS011;35476;52.466;13.364;2022-12-07T04:15:13;23.67;;;13.50;;
49572;SDS011;35476;52.466;13.364;2022-12-07T04:17:38;39.17;;;15.95;;
49572;SDS011;35476;52.466;13.364;2022-12-07T04:20:04;25.23;;;15.07;;
49572;SDS011;35476;52.466;13.364;2022-12-07T04:22:29;116.20;;;24.02;;
49572;SDS011;35476;52.466;13.364;2022-12-07T04:24:54;34.13;;;16.43;;
49572;SDS011;35476;52.466;13.364;2022-12-07T04:27:19;32.57;;;17.03;;
49572;SDS011;35476;52.466;13.364;2022-12-07T04:29:45;35.63;;;16.90;;
49572;SDS011;35476;52.466;13.364;2022-12-07T04:32:10;57.07;;;22.50;;
49572;SDS011;35476;52.466;13.364;2022-12-07T04:34:35;43.92;;;18.00;;
49572;SDS011;35476;52.466;13.364;2022-12-07T04:37:00;30.83;;;16.85;;
49572;SDS011;35476;52.466;13.364;2022-12-07T04:39:28;35.58;;;17.85;;
49572;SDS011;35476;52.466;13.364;2022-12-07T04:41:53;42.20;;;19.60;;
49572;SDS011;35476;52.466;13.364;2022-12-07T04:44:19;35.87;;;18.33;;
49572;SDS011;35476;52.466;13.364;2022-12-07T04:46:45;51.03;;;20.48;;
49572;SDS011;35476;52.466;13.364;2022-12-07T04:49:10;39.10;;;18.98;;
49572;SDS011;35476;52.466;13.364;2022-12-07T04:51:36;43.85;;;20.30;;
49572;SDS011;35476;52.466;13.364;2022-12-07T04:54:01;42.55;;;20.75;;
49572;SDS011;35476;52.466;13.364;2022-12-07T04:56:27;43.28;;;21.35;;
49572;SDS011;35476;52.466;13.364;2022-12-07T04:58:52;41.53;;;19.98;;
49572;SDS011;35476;52.466;13.364;2022-12-07T05:01:18;50.05;;;23.25;;
49572;SDS011;35476;52.466;13.364;2022-12-07T05:03:44;46.97;;;22.15;;
49572;SDS011;35476;52.466;13.364;2022-12-07T05:06:09;40.35;;;22.42;;
49572;SDS011;35476;52.466;13.364;2022-12-07T05:08:35;51.80;;;24.92;;
49572;SDS011;35476;52.466;13.364;2022-12-07T05:11:00;50.72;;;22.88;;
49572;SDS011;35476;52.466;13.364;2022-12-07T05:13:26;42.28;;;21.98;;
49572;SDS011;35476;52.466;13.364;2022-12-07T05:15:51;68.43;;;24.80;;
49572;SDS011;35476;52.466;13.364;2022-12-07T05:18:16;242.93;;;45.25;;
49572;SDS011;35476;52.466;13.364;2022-12-07T05:20:42;52.10;;;23.27;;
49572;SDS011;35476;52.466;13.364;2022-12-07T05:23:07;65.30;;;28.48;;
49572;SDS011;35476;52.466;13.364;2022-12-07T05:25:33;119.53;;;31.98;;
49572;SDS011;35476;52.466;13.364;2022-12-07T05:27:58;62.40;;;26.65;;
49572;SDS011;35476;52.466;13.364;2022-12-07T05:30:24;52.77;;;25.50;;
49572;SDS011;35476;52.466;13.364;2022-12-07T05:32:49;55.55;;;25.23;;
49572;SDS011;35476;52.466;13.364;2022-12-07T05:35:14;62.75;;;28.27;;
49572;SDS011;35476;52.466;13.364;2022-12-07T05:37:40;53.75;;;25.30;;
49572;SDS011;35476;52.466;13.364;2022-12-07T05:40:05;62.05;;;28.10;;
49572;SDS011;35476;52.466;13.364;2022-12-07T05:42:31;65.32;;;26.27;;
49572;SDS011;35476;52.466;13.364;2022-12-07T05:44:56;61.85;;;25.63;;
49572;SDS011;35476;52.466;13.364;2022-12-07T05:47:21;67.53;;;29.95;;
49572;SDS011;35476;52.466;13.364;2022-12-07T05:49:46;80.33;;;31.50;;
49572;SDS011;35476;52.466;13.364;2022-12-07T05:52:12;57.45;;;27.38;;
49572;SDS011;35476;52.466;13.364;2022-12-07T05:54:37;61.30;;;26.88;;
49572;SDS011;35476;52.466;13.364;2022-12-07T05:57:02;56.30;;;25.33;;
49572;SDS011;35476;52.466;13.364;2022-12-07T05:59:27;67.20;;;29.17;;
49572;SDS011;35476;52.466;13.364;2022-12-07T06:04:19;73.57;;;30.10;;
49572;SDS011;35476;52.466;13.364;2022-12-07T06:06:44;70.18;;;29.42;;
49572;SDS011;35476;52.466;13.364;2022-12-07T06:09:10;61.53;;;28.83;;
49572;SDS011;35476;52.466;13.364;2022-12-07T06:11:35;83.68;;;30.85;;
49572;SDS011;35476;52.466;13.364;2022-12-07T06:14:19;102.65;;;33.65;;
49572;SDS011;35476;52.466;13.364;2022-12-07T06:16:44;253.02;;;58.13;;
49572;SDS011;35476;52.466;13.364;2022-12-07T06:19:09;75.78;;;31.77;;
49572;SDS011;35476;52.466;13.364;2022-12-07T06:21:35;62.97;;;29.30;;
49572;SDS011;35476;52.466;13.364;2022-12-07T06:24:00;73.20;;;30.65;;
49572;SDS011;35476;52.466;13.364;2022-12-07T06:26:25;66.10;;;29.30;;
49572;SDS011;35476;52.466;13.364;2022-12-07T06:28:50;67.17;;;31.40;;
49572;SDS011;35476;52.466;13.364;2022-12-07T06:31:16;62.03;;;26.88;;
49572;SDS011;35476;52.466;13.364;2022-12-07T06:33:41;106.10;;;32.20;;
49572;SDS011;35476;52.466;13.364;2022-12-07T06:36:07;64.35;;;28.08;;
49572;SDS011;35476;52.466;13.364;2022-12-07T06:38:32;62.03;;;28.30;;
49572;SDS011;35476;52.466;13.364;2022-12-07T06:40:57;62.10;;;28.50;;
49572;SDS011;35476;52.466;13.364;2022-12-07T06:43:22;222.10;;;48.47;;
49572;SDS011;35476;52.466;13.364;2022-12-07T06:45:47;103.73;;;34.10;;
49572;SDS011;35476;52.466;13.364;2022-12-07T06:48:13;68.50;;;29.83;;
49572;SDS011;35476;52.466;13.364;2022-12-07T06:50:38;71.47;;;32.77;;
49572;SDS011;35476;52.466;13.364;2022-12-07T06:53:03;69.87;;;30.57;;
49572;SDS011;35476;52.466;13.364;2022-12-07T06:55:28;74.28;;;31.42;;
49572;SDS011;35476;52.466;13.364;2022-12-07T06:57:53;73.67;;;33.40;;
49572;SDS011;35476;52.466;13.364;2022-12-07T07:00:19;76.07;;;30.50;;
49572;SDS011;35476;52.466;13.364;2022-12-07T07:02:44;69.18;;;31.50;;
49572;SDS011;35476;52.466;13.364;2022-12-07T07:05:09;62.57;;;30.50;;
49572;SDS011;35476;52.466;13.364;2022-12-07T07:07:34;73.05;;;32.45;;
49572;SDS011;35476;52.466;13.364;2022-12-07T07:10:00;98.15;;;36.20;;
49572;SDS011;35476;52.466;13.364;2022-12-07T07:12:25;58.90;;;30.00;;
49572;SDS011;35476;52.466;13.364;2022-12-07T07:14:50;60.78;;;30.60;;
49572;SDS011;35476;52.466;13.364;2022-12-07T07:17:15;58.97;;;29.67;;
49572;SDS011;35476;52.466;13.364;2022-12-07T07:19:40;57.83;;;30.47;;
49572;SDS011;35476;52.466;13.364;2022-12-07T07:22:06;49.60;;;28.77;;
49572;SDS011;35476;52.466;13.364;2022-12-07T07:24:31;61.10;;;26.27;;
49572;SDS011;35476;52.466;13.364;2022-12-07T07:26:56;52.63;;;28.50;;
49572;SDS011;35476;52.466;13.364;2022-12-07T07:29:21;49.57;;;26.90;;
49572;SDS011;35476;52.466;13.364;2022-12-07T07:31:46;50.70;;;27.80;;
49572;SDS011;35476;52.466;13.364;2022-12-07T07:34:12;41.57;;;24.00;;
49572;SDS011;35476;52.466;13.364;2022-12-07T07:36:37;45.08;;;24.00;;
49572;SDS011;35476;52.466;13.364;2022-12-07T07:39:02;39.88;;;21.90;;
49572;SDS011;35476;52.466;13.364;2022-12-07T07:41:28;37.00;;;20.55;;
49572;SDS011;35476;52.466;13.364;2022-12-07T07:43:53;47.97;;;26.42;;
49572;SDS011;35476;52.466;13.364;2022-12-07T07:46:18;62.08;;;25.42;;
49572;SDS011;35476;52.466;13.364;2022-12-07T07:48:43;43.83;;;24.75;;
49572;SDS011;35476;52.466;13.364;2022-12-07T07:51:09;48.67;;;25.73;;
49572;SDS011;35476;52.466;13.364;2022-12-07T07:53:34;34.53;;;18.13;;
49572;SDS011;35476;52.466;13.364;2022-12-07T07:55:59;41.25;;;21.90;;
49572;SDS011;35476;52.466;13.364;2022-12-07T07:58:25;29.38;;;16.83;;
49572;SDS011;35476;52.466;13.364;2022-12-07T08:00:50;33.00;;;18.30;;
49572;SDS011;35476;52.466;13.364;2022-12-07T08:03:15;33.95;;;20.33;;
49572;SDS011;35476;52.466;13.364;2022-12-07T08:05:41;31.23;;;17.37;;
49572;SDS011;35476;52.466;13.364;2022-12-07T08:08:06;22.63;;;15.57;;
49572;SDS011;35476;52.466;13.364;2022-12-07T08:10:31;29.10;;;16.27;;
49572;SDS011;35476;52.466;13.364;2022-12-07T08:12:57;22.88;;;15.10;;
49572;SDS011;35476;52.466;13.364;2022-12-07T08:15:39;18.98;;;14.02;;
49572;SDS011;35476;52.466;13.364;2022-12-07T08:18:05;21.88;;;13.95;;
49572;SDS011;35476;52.466;13.364;2022-12-07T08:20:31;19.77;;;12.10;;
49572;SDS011;35476;52.466;13.364;2022-12-07T08:22:56;19.55;;;11.48;;
49572;SDS011;35476;52.466;13.364;2022-12-07T08:25:22;20.47;;;11.83;;
49572;SDS011;35476;52.466;13.364;2022-12-07T08:27:47;19.17;;;9.55;;
49572;SDS011;35476;52.466;13.364;2022-12-07T08:30:13;13.85;;;9.10;;
49572;SDS011;35476;52.466;13.364;2022-12-07T08:32:38;13.07;;;9.20;;
49572;SDS011;35476;52.466;13.364;2022-12-07T08:35:03;8.52;;;6.88;;
49572;SDS011;35476;52.466;13.364;2022-12-07T08:37:29;10.45;;;4.72;;
49572;SDS011;35476;52.466;13.364;2022-12-07T08:39:54;5.83;;;3.70;;
49572;SDS011;35476;52.466;13.364;2022-12-07T08:42:19;5.47;;;3.53;;
49572;SDS011;35476;52.466;13.364;2022-12-07T08:44:47;5.82;;;3.47;;
49572;SDS011;35476;52.466;13.364;2022-12-07T08:47:12;4.72;;;2.65;;
49572;SDS011;35476;52.466;13.364;2022-12-07T08:49:38;2.80;;;2.40;;
49572;SDS011;35476;52.466;13.364;2022-12-07T08:52:04;5.72;;;2.88;;
49572;SDS011;35476;52.466;13.364;2022-12-07T08:54:30;8.15;;;3.08;;
49572;SDS011;35476;52.466;13.364;2022-12-07T08:56:55;4.80;;;3.08;;
49572;SDS011;35476;52.466;13.364;2022-12-07T08:59:21;3.67;;;2.80;;
49572;SDS011;35476;52.466;13.364;2022-12-07T09:01:47;6.32;;;2.97;;
49572;SDS011;35476;52.466;13.364;2022-12-07T09:04:12;4.05;;;2.55;;
49572;SDS011;35476;52.466;13.364;2022-12-07T09:06:37;4.65;;;2.72;;
49572;SDS011;35476;52.466;13.364;2022-12-07T09:09:03;4.43;;;2.50;;
49572;SDS011;35476;52.466;13.364;2022-12-07T09:11:28;4.82;;;2.42;;
49572;SDS011;35476;52.466;13.364;2022-12-07T09:13:53;4.17;;;2.00;;
49572;SDS011;35476;52.466;13.364;2022-12-07T09:16:18;5.60;;;2.45;;
49572;SDS011;35476;52.466;13.364;2022-12-07T09:18:43;11.23;;;2.70;;
49572;SDS011;35476;52.466;13.364;2022-12-07T09:21:09;4.60;;;2.80;;
49572;SDS011;35476;52.466;13.364;2022-12-07T09:23:34;7.75;;;3.40;;
49572;SDS011;35476;52.466;13.364;2022-12-07T09:26:00;8.45;;;2.45;;
49572;SDS011;35476;52.466;13.364;2022-12-07T09:28:25;4.68;;;2.67;;
49572;SDS011;35476;52.466;13.364;2022-12-07T09:30:50;5.78;;;2.78;;
49572;SDS011;35476;52.466;13.364;2022-12-07T09:33:16;4.70;;;2.53;;
49572;SDS011;35476;52.466;13.364;2022-12-07T09:35:48;3.50;;;2.60;;
49572;SDS011;35476;52.466;13.364;2022-12-07T09:38:13;3.78;;;2.58;;
49572;SDS011;35476;52.466;13.364;2022-12-07T09:40:39;5.07;;;2.08;;
49572;SDS011;35476;52.466;13.364;2022-12-07T09:43:04;2.90;;;2.10;;
49572;SDS011;35476;52.466;13.364;2022-12-07T09:45:34;3.38;;;1.90;;
49572;SDS011;35476;52.466;13.364;2022-12-07T09:47:59;3.38;;;1.90;;
49572;SDS011;35476;52.466;13.364;2022-12-07T09:50:26;3.92;;;2.75;;
49572;SDS011;35476;52.466;13.364;2022-12-07T09:52:51;3.05;;;1.98;;
49572;SDS011;35476;52.466;13.364;2022-12-07T09:55:24;3.70;;;2.63;;
49572;SDS011;35476;52.466;13.364;2022-12-07T09:57:49;3.35;;;2.05;;
49572;SDS011;35476;52.466;13.364;2022-12-07T10:00:17;2.53;;;2.10;;
49572;SDS011;35476;52.466;13.364;2022-12-07T10:02:55;3.45;;;2.00;;
49572;SDS011;35476;52.466;13.364;2022-12-07T10:05:25;3.55;;;2.03;;
49572;SDS011;35476;52.466;13.364;2022-12-07T10:07:52;10.05;;;2.33;;
49572;SDS011;35476;52.466;13.364;2022-12-07T10:10:19;3.60;;;2.40;;
49572;SDS011;35476;52.466;13.364;2022-12-07T10:12:52;3.60;;;2.33;;
49572;SDS011;35476;52.466;13.364;2022-12-07T10:15:18;3.80;;;2.30;;
49572;SDS011;35476;52.466;13.364;2022-12-07T10:17:47;5.47;;;1.98;;
49572;SDS011;35476;52.466;13.364;2022-12-07T10:20:18;4.18;;;2.50;;
49572;SDS011;35476;52.466;13.364;2022-12-07T10:22:57;4.22;;;2.30;;
49572;SDS011;35476;52.466;13.364;2022-12-07T10:25:24;6.22;;;2.42;;
49572;SDS011;35476;52.466;13.364;2022-12-07T10:28:27;3.38;;;2.33;;
49572;SDS011;35476;52.466;13.364;2022-12-07T10:36:36;3.20;;;1.90;;
49572;SDS011;35476;52.466;13.364;2022-12-07T10:39:04;3.50;;;2.50;;
49572;SDS011;35476;52.466;13.364;2022-12-07T10:41:35;3.75;;;2.42;;
49572;SDS011;35476;52.466;13.364;2022-12-07T10:44:00;4.33;;;1.93;;
49572;SDS011;35476;52.466;13.364;2022-12-07T10:54:22;3.72;;;2.95;;
49572;SDS011;35476;52.466;13.364;2022-12-07T10:59:26;4.07;;;2.88;;
49572;SDS011;35476;52.466;13.364;2022-12-07T11:07:10;5.47;;;2.70;;
49572;SDS011;35476;52.466;13.364;2022-12-07T11:12:18;5.32;;;2.47;;
49572;SDS011;35476;52.466;13.364;2022-12-07T11:17:23;5.68;;;2.75;;
49572;SDS011;35476;52.466;13.364;2022-12-07T11:20:01;3.33;;;2.80;;
49572;SDS011;35476;52.466;13.364;2022-12-07T11:22:39;5.35;;;3.08;;
49572;SDS011;35476;52.466;13.364;2022-12-07T11:27:47;6.53;;;2.70;;
49572;SDS011;35476;52.466;13.364;2022-12-07T11:30:17;5.00;;;3.00;;
49572;SDS011;35476;52.466;13.364;2022-12-07T11:32:49;5.97;;;3.80;;
49572;SDS011;35476;52.466;13.364;2022-12-07T11:37:51;6.60;;;3.10;;
49572;SDS011;35476;52.466;13.364;2022-12-07T11:40:24;5.68;;;2.95;;
49572;SDS011;35476;52.466;13.364;2022-12-07T11:42:56;6.35;;;3.60;;
49572;SDS011;35476;52.466;13.364;2022-12-07T11:45:24;5.88;;;3.28;;
49572;SDS011;35476;52.466;13.364;2022-12-07T11:53:03;5.50;;;2.78;;
49572;SDS011;35476;52.466;13.364;2022-12-07T11:58:12;6.63;;;3.50;;
49572;SDS011;35476;52.466;13.364;2022-12-07T12:00:39;6.72;;;3.25;;
49572;SDS011;35476;52.466;13.364;2022-12-07T12:03:12;3.63;;;2.45;;
49572;SDS011;35476;52.466;13.364;2022-12-07T12:05:40;4.85;;;2.53;;
49572;SDS011;35476;52.466;13.364;2022-12-07T12:08:12;6.10;;;2.90;;
49572;SDS011;35476;52.466;13.364;2022-12-07T12:10:46;4.18;;;1.83;;
49572;SDS011;35476;52.466;13.364;2022-12-07T12:16:17;6.65;;;2.55;;
49572;SDS011;35476;52.466;13.364;2022-12-07T12:21:12;3.50;;;2.33;;
49572;SDS011;35476;52.466;13.364;2022-12-07T12:23:48;4.05;;;2.25;;
49572;SDS011;35476;52.466;13.364;2022-12-07T12:26:17;4.10;;;2.40;;
49572;SDS011;35476;52.466;13.364;2022-12-07T12:33:43;7.10;;;2.80;;
49572;SDS011;35476;52.466;13.364;2022-12-07T12:41:11;7.13;;;2.67;;
49572;SDS011;35476;52.466;13.364;2022-12-07T12:43:56;6.38;;;2.55;;
49572;SDS011;35476;52.466;13.364;2022-12-07T12:54:18;6.60;;;2.95;;
49572;SDS011;35476;52.466;13.364;2022-12-07T12:59:32;6.10;;;2.17;;
49572;SDS011;35476;52.466;13.364;2022-12-07T13:02:09;6.80;;;2.72;;
49572;SDS011;35476;52.466;13.364;2022-12-07T13:04:53;14.75;;;3.08;;
49572;SDS011;35476;52.466;13.364;2022-12-07T13:10:02;5.88;;;2.63;;
49572;SDS011;35476;52.466;13.364;2022-12-07T13:12:27;5.70;;;3.20;;
49572;SDS011;35476;52.466;13.364;2022-12-07T13:14:56;6.20;;;2.63;;
49572;SDS011;35476;52.466;13.364;2022-12-07T13:20:00;7.00;;;2.97;;
49572;SDS011;35476;52.466;13.364;2022-12-07T13:25:08;4.45;;;2.63;;
49572;SDS011;35476;52.466;13.364;2022-12-07T13:27:35;6.80;;;3.47;;
49572;SDS011;35476;52.466;13.364;2022-12-07T13:30:02;3.58;;;1.98;;
49572;SDS011;35476;52.466;13.364;2022-12-07T13:32:32;4.50;;;2.10;;
49572;SDS011;35476;52.466;13.364;2022-12-07T13:34:57;5.47;;;2.00;;
49572;SDS011;35476;52.466;13.364;2022-12-07T13:37:27;4.30;;;2.07;;
49572;SDS011;35476;52.466;13.364;2022-12-07T13:39:54;5.15;;;2.08;;
49572;SDS011;35476;52.466;13.364;2022-12-07T13:42:24;7.07;;;2.72;;
49572;SDS011;35476;52.466;13.364;2022-12-07T13:44:50;8.68;;;3.45;;
49572;SDS011;35476;52.466;13.364;2022-12-07T13:47:16;7.03;;;2.23;;
49572;SDS011;35476;52.466;13.364;2022-12-07T13:49:46;6.75;;;2.17;;
49572;SDS011;35476;52.466;13.364;2022-12-07T13:57:25;6.95;;;2.25;;
49572;SDS011;35476;52.466;13.364;2022-12-07T13:59:51;7.32;;;2.25;;
49572;SDS011;35476;52.466;13.364;2022-12-07T14:02:27;4.05;;;2.30;;
49572;SDS011;35476;52.466;13.364;2022-12-07T14:05:05;7.68;;;2.10;;
49572;SDS011;35476;52.466;13.364;2022-12-07T14:07:30;8.48;;;1.90;;
49572;SDS011;35476;52.466;13.364;2022-12-07T14:10:02;5.18;;;2.13;;
49572;SDS011;35476;52.466;13.364;2022-12-07T14:12:29;4.32;;;1.95;;
49572;SDS011;35476;52.466;13.364;2022-12-07T14:14:54;6.38;;;2.20;;
49572;SDS011;35476;52.466;13.364;2022-12-07T14:17:21;6.90;;;2.47;;
49572;SDS011;35476;52.466;13.364;2022-12-07T14:24:43;7.25;;;2.35;;
49572;SDS011;35476;52.466;13.364;2022-12-07T14:27:46;9.98;;;2.25;;
49572;SDS011;35476;52.466;13.364;2022-12-07T14:30:01;5.93;;;2.45;;
49572;SDS011;35476;52.466;13.364;2022-12-07T14:32:27;6.13;;;2.25;;
49572;SDS011;35476;52.466;13.364;2022-12-07T14:37:48;16.63;;;2.72;;
49572;SDS011;35476;52.466;13.364;2022-12-07T14:40:16;7.57;;;2.40;;
49572;SDS011;35476;52.466;13.364;2022-12-07T14:42:41;8.07;;;2.67;;
49572;SDS011;35476;52.466;13.364;2022-12-07T14:45:12;8.85;;;2.70;;
49572;SDS011;35476;52.466;13.364;2022-12-07T14:47:37;6.10;;;2.40;;
49572;SDS011;35476;52.466;13.364;2022-12-07T14:50:03;6.27;;;3.07;;
49572;SDS011;35476;52.466;13.364;2022-12-07T14:52:28;7.72;;;3.15;;
49572;SDS011;35476;52.466;13.364;2022-12-07T14:54:55;11.40;;;3.05;;
49572;SDS011;35476;52.466;13.364;2022-12-07T14:57:20;4.93;;;2.30;;
49572;SDS011;35476;52.466;13.364;2022-12-07T14:59:45;7.50;;;2.90;;
49572;SDS011;35476;52.466;13.364;2022-12-07T15:02:14;6.55;;;2.70;;
49572;SDS011;35476;52.466;13.364;2022-12-07T15:04:39;6.55;;;2.47;;
49572;SDS011;35476;52.466;13.364;2022-12-07T15:07:05;13.45;;;2.53;;
49572;SDS011;35476;52.466;13.364;2022-12-07T15:09:31;5.40;;;2.97;;
49572;SDS011;35476;52.466;13.364;2022-12-07T15:11:56;6.10;;;3.75;;
49572;SDS011;35476;52.466;13.364;2022-12-07T15:14:22;3.78;;;2.20;;
49572;SDS011;35476;52.466;13.364;2022-12-07T15:16:47;5.60;;;2.73;;
49572;SDS011;35476;52.466;13.364;2022-12-07T15:19:16;7.73;;;2.23;;
49572;SDS011;35476;52.466;13.364;2022-12-07T15:21:42;11.48;;;2.85;;
49572;SDS011;35476;52.466;13.364;2022-12-07T15:24:08;9.20;;;2.92;;
49572;SDS011;35476;52.466;13.364;2022-12-07T15:26:33;6.13;;;2.95;;
49572;SDS011;35476;52.466;13.364;2022-12-07T15:28:58;6.15;;;3.97;;
49572;SDS011;35476;52.466;13.364;2022-12-07T15:31:24;8.50;;;2.72;;
49572;SDS011;35476;52.466;13.364;2022-12-07T15:33:49;8.53;;;2.80;;
49572;SDS011;35476;52.466;13.364;2022-12-07T15:36:24;14.10;;;3.33;;
49572;SDS011;35476;52.466;13.364;2022-12-07T15:38:50;4.88;;;2.60;;
49572;SDS011;35476;52.466;13.364;2022-12-07T15:41:16;7.90;;;2.70;;
49572;SDS011;35476;52.466;13.364;2022-12-07T15:43:41;7.30;;;2.55;;
49572;SDS011;35476;52.466;13.364;2022-12-07T15:48:50;7.97;;;2.60;;
49572;SDS011;35476;52.466;13.364;2022-12-07T15:51:16;10.35;;;2.78;;
49572;SDS011;35476;52.466;13.364;2022-12-07T15:53:41;4.75;;;2.60;;
49572;SDS011;35476;52.466;13.364;2022-12-07T15:56:06;9.20;;;3.47;;
49572;SDS011;35476;52.466;13.364;2022-12-07T15:58:32;6.13;;;2.72;;
49572;SDS011;35476;52.466;13.364;2022-12-07T16:00:57;8.18;;;2.63;;
49572;SDS011;35476;52.466;13.364;2022-12-07T16:03:22;6.97;;;2.40;;
49572;SDS011;35476;52.466;13.364;2022-12-07T16:05:48;11.18;;;2.38;;
49572;SDS011;35476;52.466;13.364;2022-12-07T16:08:14;12.32;;;3.00;;
49572;SDS011;35476;52.466;13.364;2022-12-07T16:10:39;12.88;;;3.42;;
49572;SDS011;35476;52.466;13.364;2022-12-07T16:13:08;11.38;;;3.75;;
49572;SDS011;35476;52.466;13.364;2022-12-07T16:15:37;7.47;;;2.75;;